sensor_id;sensor_type;location;lat;lon;timestamp;P1;durP1;ratioP1;P2;durP2;ratioP2
20826;SDS011;10574;52.508;13.236;2023-04-24T00:00:33;0.87;;;0.87;;
20826;SDS011;10574;52.508;13.236;2023-04-24T00:03:01;0.90;;;0.80;;
20826;SDS011;10574;52.508;13.236;2023-04-24T00:05:29;2.07;;;1.20;;
20826;SDS011;10574;52.508;13.236;2023-04-24T00:07:57;0.90;;;0.73;;
20826;SDS011;10574;52.508;13.236;2023-04-24T00:10:25;1.90;;;0.93;;
20826;SDS011;10574;52.508;13.236;2023-04-24T00:12:52;1.27;;;0.50;;
20826;SDS011;10574;52.508;13.236;2023-04-24T00:15:20;1.17;;;0.77;;
20826;SDS011;10574;52.508;13.236;2023-04-24T00:17:48;1.23;;;0.70;;
20826;SDS011;10574;52.508;13.236;2023-04-24T00:20:16;1.17;;;0.67;;
20826;SDS011;10574;52.508;13.236;2023-04-24T00:22:44;1.13;;;0.60;;
20826;SDS011;10574;52.508;13.236;2023-04-24T00:25:12;3.90;;;0.90;;
20826;SDS011;10574;52.508;13.236;2023-04-24T00:27:40;0.20;;;0.20;;
20826;SDS011;10574;52.508;13.236;2023-04-24T00:30:08;1.03;;;0.80;;
20826;SDS011;10574;52.508;13.236;2023-04-24T00:32:36;0.73;;;0.60;;
20826;SDS011;10574;52.508;13.236;2023-04-24T00:35:04;1.40;;;0.83;;
20826;SDS011;10574;52.508;13.236;2023-04-24T00:37:32;2.07;;;0.87;;
20826;SDS011;10574;52.508;13.236;2023-04-24T00:40:00;0.73;;;0.47;;
20826;SDS011;10574;52.508;13.236;2023-04-24T00:42:28;2.10;;;0.87;;
20826;SDS011;10574;52.508;13.236;2023-04-24T00:44:56;0.83;;;0.70;;
20826;SDS011;10574;52.508;13.236;2023-04-24T00:47:25;1.00;;;0.40;;
20826;SDS011;10574;52.508;13.236;2023-04-24T00:49:53;2.23;;;0.73;;
20826;SDS011;10574;52.508;13.236;2023-04-24T00:52:21;0.53;;;0.53;;
20826;SDS011;10574;52.508;13.236;2023-04-24T00:54:50;0.53;;;0.53;;
20826;SDS011;10574;52.508;13.236;2023-04-24T00:57:17;0.67;;;0.67;;
20826;SDS011;10574;52.508;13.236;2023-04-24T00:59:45;1.60;;;0.90;;
20826;SDS011;10574;52.508;13.236;2023-04-24T01:02:14;4.80;;;1.10;;
20826;SDS011;10574;52.508;13.236;2023-04-24T01:04:42;0.63;;;0.63;;
20826;SDS011;10574;52.508;13.236;2023-04-24T01:07:10;1.63;;;0.90;;
20826;SDS011;10574;52.508;13.236;2023-04-24T01:09:38;2.20;;;1.40;;
20826;SDS011;10574;52.508;13.236;2023-04-24T01:12:09;1.23;;;0.70;;
20826;SDS011;10574;52.508;13.236;2023-04-24T01:14:39;1.37;;;0.80;;
20826;SDS011;10574;52.508;13.236;2023-04-24T01:17:06;0.77;;;0.77;;
20826;SDS011;10574;52.508;13.236;2023-04-24T01:19:35;1.43;;;1.23;;
20826;SDS011;10574;52.508;13.236;2023-04-24T01:22:08;0.80;;;0.80;;
20826;SDS011;10574;52.508;13.236;2023-04-24T01:24:42;1.07;;;1.07;;
20826;SDS011;10574;52.508;13.236;2023-04-24T01:27:10;1.03;;;0.93;;
20826;SDS011;10574;52.508;13.236;2023-04-24T01:29:39;1.03;;;0.93;;
20826;SDS011;10574;52.508;13.236;2023-04-24T01:32:07;1.57;;;0.87;;
20826;SDS011;10574;52.508;13.236;2023-04-24T01:34:35;2.07;;;1.27;;
20826;SDS011;10574;52.508;13.236;2023-04-24T01:37:04;1.80;;;1.37;;
20826;SDS011;10574;52.508;13.236;2023-04-24T01:39:31;1.17;;;0.77;;
20826;SDS011;10574;52.508;13.236;2023-04-24T01:42:00;7.23;;;0.97;;
20826;SDS011;10574;52.508;13.236;2023-04-24T01:44:29;2.80;;;1.10;;
20826;SDS011;10574;52.508;13.236;2023-04-24T01:46:57;0.97;;;0.60;;
20826;SDS011;10574;52.508;13.236;2023-04-24T01:49:27;5.60;;;1.13;;
20826;SDS011;10574;52.508;13.236;2023-04-24T01:51:54;1.20;;;0.97;;
20826;SDS011;10574;52.508;13.236;2023-04-24T01:54:22;2.37;;;1.40;;
20826;SDS011;10574;52.508;13.236;2023-04-24T01:56:50;1.37;;;1.27;;
20826;SDS011;10574;52.508;13.236;2023-04-24T01:59:18;2.10;;;0.90;;
20826;SDS011;10574;52.508;13.236;2023-04-24T02:01:48;1.03;;;0.93;;
20826;SDS011;10574;52.508;13.236;2023-04-24T02:04:15;1.10;;;0.93;;
20826;SDS011;10574;52.508;13.236;2023-04-24T02:06:43;2.07;;;1.53;;
20826;SDS011;10574;52.508;13.236;2023-04-24T02:09:11;3.40;;;1.13;;
20826;SDS011;10574;52.508;13.236;2023-04-24T02:11:39;0.93;;;0.87;;
20826;SDS011;10574;52.508;13.236;2023-04-24T02:14:06;1.77;;;1.40;;
20826;SDS011;10574;52.508;13.236;2023-04-24T02:16:34;5.63;;;1.70;;
20826;SDS011;10574;52.508;13.236;2023-04-24T02:19:02;0.60;;;0.60;;
20826;SDS011;10574;52.508;13.236;2023-04-24T02:21:30;1.87;;;1.37;;
20826;SDS011;10574;52.508;13.236;2023-04-24T02:23:58;1.07;;;1.03;;
20826;SDS011;10574;52.508;13.236;2023-04-24T02:26:26;1.80;;;1.30;;
20826;SDS011;10574;52.508;13.236;2023-04-24T02:28:54;1.27;;;1.03;;
20826;SDS011;10574;52.508;13.236;2023-04-24T02:31:21;2.07;;;1.10;;
20826;SDS011;10574;52.508;13.236;2023-04-24T02:33:49;0.63;;;0.63;;
20826;SDS011;10574;52.508;13.236;2023-04-24T02:36:17;0.53;;;0.53;;
20826;SDS011;10574;52.508;13.236;2023-04-24T02:38:44;1.77;;;1.17;;
20826;SDS011;10574;52.508;13.236;2023-04-24T02:41:12;2.20;;;1.03;;
20826;SDS011;10574;52.508;13.236;2023-04-24T02:43:40;1.20;;;1.03;;
20826;SDS011;10574;52.508;13.236;2023-04-24T02:46:07;0.70;;;0.70;;
20826;SDS011;10574;52.508;13.236;2023-04-24T02:48:35;3.30;;;1.30;;
20826;SDS011;10574;52.508;13.236;2023-04-24T02:51:03;1.43;;;1.00;;
20826;SDS011;10574;52.508;13.236;2023-04-24T02:53:32;1.83;;;0.87;;
20826;SDS011;10574;52.508;13.236;2023-04-24T02:56:00;2.37;;;1.50;;
20826;SDS011;10574;52.508;13.236;2023-04-24T02:58:27;1.33;;;0.83;;
20826;SDS011;10574;52.508;13.236;2023-04-24T03:00:56;1.80;;;1.07;;
20826;SDS011;10574;52.508;13.236;2023-04-24T03:03:23;3.80;;;1.13;;
20826;SDS011;10574;52.508;13.236;2023-04-24T03:05:51;1.33;;;1.10;;
20826;SDS011;10574;52.508;13.236;2023-04-24T03:08:19;2.30;;;1.77;;
20826;SDS011;10574;52.508;13.236;2023-04-24T03:10:47;2.60;;;1.37;;
20826;SDS011;10574;52.508;13.236;2023-04-24T03:13:15;4.30;;;1.93;;
20826;SDS011;10574;52.508;13.236;2023-04-24T03:15:43;1.10;;;0.57;;
20826;SDS011;10574;52.508;13.236;2023-04-24T03:18:12;2.47;;;1.17;;
20826;SDS011;10574;52.508;13.236;2023-04-24T03:20:41;2.50;;;1.33;;
20826;SDS011;10574;52.508;13.236;2023-04-24T03:23:09;2.30;;;1.33;;
20826;SDS011;10574;52.508;13.236;2023-04-24T03:25:38;0.83;;;0.80;;
20826;SDS011;10574;52.508;13.236;2023-04-24T03:28:06;3.00;;;1.20;;
20826;SDS011;10574;52.508;13.236;2023-04-24T03:30:34;1.40;;;0.67;;
20826;SDS011;10574;52.508;13.236;2023-04-24T03:33:02;0.97;;;0.97;;
20826;SDS011;10574;52.508;13.236;2023-04-24T03:35:29;12.70;;;2.87;;
20826;SDS011;10574;52.508;13.236;2023-04-24T03:37:57;4.37;;;1.77;;
20826;SDS011;10574;52.508;13.236;2023-04-24T03:40:25;0.97;;;0.87;;
20826;SDS011;10574;52.508;13.236;2023-04-24T03:42:54;3.00;;;1.20;;
20826;SDS011;10574;52.508;13.236;2023-04-24T03:45:22;2.10;;;1.13;;
20826;SDS011;10574;52.508;13.236;2023-04-24T03:47:50;2.93;;;1.63;;
20826;SDS011;10574;52.508;13.236;2023-04-24T03:50:17;0.57;;;0.53;;
20826;SDS011;10574;52.508;13.236;2023-04-24T03:52:46;1.70;;;0.87;;
20826;SDS011;10574;52.508;13.236;2023-04-24T03:55:13;1.80;;;0.97;;
20826;SDS011;10574;52.508;13.236;2023-04-24T03:57:41;2.37;;;1.03;;
20826;SDS011;10574;52.508;13.236;2023-04-24T04:00:09;1.47;;;1.13;;
20826;SDS011;10574;52.508;13.236;2023-04-24T04:02:38;1.60;;;0.90;;
20826;SDS011;10574;52.508;13.236;2023-04-24T04:05:05;0.50;;;0.50;;
20826;SDS011;10574;52.508;13.236;2023-04-24T04:07:34;0.90;;;0.87;;
20826;SDS011;10574;52.508;13.236;2023-04-24T04:10:01;2.37;;;1.50;;
20826;SDS011;10574;52.508;13.236;2023-04-24T04:12:29;2.20;;;0.97;;
20826;SDS011;10574;52.508;13.236;2023-04-24T04:14:57;1.13;;;1.03;;
20826;SDS011;10574;52.508;13.236;2023-04-24T04:17:25;0.80;;;0.80;;
20826;SDS011;10574;52.508;13.236;2023-04-24T04:19:52;2.37;;;0.73;;
20826;SDS011;10574;52.508;13.236;2023-04-24T04:22:20;2.43;;;1.03;;
20826;SDS011;10574;52.508;13.236;2023-04-24T04:24:48;0.97;;;0.80;;
20826;SDS011;10574;52.508;13.236;2023-04-24T04:27:16;1.03;;;0.80;;
20826;SDS011;10574;52.508;13.236;2023-04-24T04:29:44;1.20;;;1.10;;
20826;SDS011;10574;52.508;13.236;2023-04-24T04:32:12;2.70;;;1.13;;
20826;SDS011;10574;52.508;13.236;2023-04-24T04:34:41;0.80;;;0.80;;
20826;SDS011;10574;52.508;13.236;2023-04-24T04:37:10;1.03;;;0.90;;
20826;SDS011;10574;52.508;13.236;2023-04-24T04:39:39;0.57;;;0.50;;
20826;SDS011;10574;52.508;13.236;2023-04-24T04:42:06;1.43;;;1.10;;
20826;SDS011;10574;52.508;13.236;2023-04-24T04:44:34;0.47;;;0.40;;
20826;SDS011;10574;52.508;13.236;2023-04-24T04:47:02;1.13;;;0.80;;
20826;SDS011;10574;52.508;13.236;2023-04-24T04:49:32;2.50;;;0.80;;
20826;SDS011;10574;52.508;13.236;2023-04-24T04:52:00;2.57;;;1.90;;
20826;SDS011;10574;52.508;13.236;2023-04-24T04:54:28;0.73;;;0.70;;
20826;SDS011;10574;52.508;13.236;2023-04-24T04:56:55;1.13;;;0.77;;
20826;SDS011;10574;52.508;13.236;2023-04-24T04:59:23;20.43;;;1.50;;
20826;SDS011;10574;52.508;13.236;2023-04-24T05:01:52;0.73;;;0.73;;
20826;SDS011;10574;52.508;13.236;2023-04-24T05:04:21;0.80;;;0.57;;
20826;SDS011;10574;52.508;13.236;2023-04-24T05:06:49;0.50;;;0.50;;
20826;SDS011;10574;52.508;13.236;2023-04-24T05:09:17;1.43;;;1.17;;
20826;SDS011;10574;52.508;13.236;2023-04-24T05:11:45;0.40;;;0.40;;
20826;SDS011;10574;52.508;13.236;2023-04-24T05:14:12;0.57;;;0.57;;
20826;SDS011;10574;52.508;13.236;2023-04-24T05:16:40;2.10;;;1.40;;
20826;SDS011;10574;52.508;13.236;2023-04-24T05:19:08;0.90;;;0.90;;
20826;SDS011;10574;52.508;13.236;2023-04-24T05:21:37;0.50;;;0.40;;
20826;SDS011;10574;52.508;13.236;2023-04-24T05:24:05;0.70;;;0.37;;
20826;SDS011;10574;52.508;13.236;2023-04-24T05:26:33;1.87;;;0.87;;
20826;SDS011;10574;52.508;13.236;2023-04-24T05:29:01;1.50;;;0.90;;
20826;SDS011;10574;52.508;13.236;2023-04-24T05:31:30;0.63;;;0.37;;
20826;SDS011;10574;52.508;13.236;2023-04-24T05:34:01;3.43;;;0.50;;
20826;SDS011;10574;52.508;13.236;2023-04-24T05:36:35;1.23;;;0.63;;
20826;SDS011;10574;52.508;13.236;2023-04-24T05:39:03;0.60;;;0.50;;
20826;SDS011;10574;52.508;13.236;2023-04-24T05:41:30;0.20;;;0.17;;
20826;SDS011;10574;52.508;13.236;2023-04-24T05:43:58;0.93;;;0.53;;
20826;SDS011;10574;52.508;13.236;2023-04-24T05:46:26;1.40;;;0.50;;
20826;SDS011;10574;52.508;13.236;2023-04-24T05:48:54;0.87;;;0.83;;
20826;SDS011;10574;52.508;13.236;2023-04-24T05:51:21;1.43;;;0.60;;
20826;SDS011;10574;52.508;13.236;2023-04-24T05:53:50;0.60;;;0.30;;
20826;SDS011;10574;52.508;13.236;2023-04-24T05:56:18;0.27;;;0.27;;
20826;SDS011;10574;52.508;13.236;2023-04-24T05:58:46;1.03;;;0.63;;
20826;SDS011;10574;52.508;13.236;2023-04-24T06:01:14;0.43;;;0.40;;
20826;SDS011;10574;52.508;13.236;2023-04-24T06:03:41;7.63;;;0.40;;
20826;SDS011;10574;52.508;13.236;2023-04-24T06:06:09;0.60;;;0.17;;
20826;SDS011;10574;52.508;13.236;2023-04-24T06:08:37;0.20;;;0.20;;
20826;SDS011;10574;52.508;13.236;2023-04-24T06:11:05;0.67;;;0.40;;
20826;SDS011;10574;52.508;13.236;2023-04-24T06:13:32;0.40;;;0.30;;
20826;SDS011;10574;52.508;13.236;2023-04-24T06:16:00;0.37;;;0.33;;
20826;SDS011;10574;52.508;13.236;2023-04-24T06:18:28;0.43;;;0.43;;
20826;SDS011;10574;52.508;13.236;2023-04-24T06:20:56;5.63;;;0.57;;
20826;SDS011;10574;52.508;13.236;2023-04-24T06:23:24;0.30;;;0.30;;
20826;SDS011;10574;52.508;13.236;2023-04-24T06:25:52;0.37;;;0.30;;
20826;SDS011;10574;52.508;13.236;2023-04-24T06:28:19;0.53;;;0.43;;
20826;SDS011;10574;52.508;13.236;2023-04-24T06:30:47;0.20;;;0.20;;
20826;SDS011;10574;52.508;13.236;2023-04-24T06:33:15;0.00;;;0.00;;
20826;SDS011;10574;52.508;13.236;2023-04-24T06:35:43;7.47;;;0.37;;
20826;SDS011;10574;52.508;13.236;2023-04-24T06:38:11;0.77;;;0.37;;
20826;SDS011;10574;52.508;13.236;2023-04-24T06:40:39;0.20;;;0.20;;
20826;SDS011;10574;52.508;13.236;2023-04-24T06:43:09;0.27;;;0.23;;
20826;SDS011;10574;52.508;13.236;2023-04-24T06:45:36;0.93;;;0.30;;
20826;SDS011;10574;52.508;13.236;2023-04-24T06:48:05;0.10;;;0.10;;
20826;SDS011;10574;52.508;13.236;2023-04-24T06:50:33;0.10;;;0.10;;
20826;SDS011;10574;52.508;13.236;2023-04-24T06:53:01;0.17;;;0.17;;
20826;SDS011;10574;52.508;13.236;2023-04-24T06:55:28;0.10;;;0.10;;
20826;SDS011;10574;52.508;13.236;2023-04-24T06:57:56;0.20;;;0.20;;
20826;SDS011;10574;52.508;13.236;2023-04-24T07:00:24;0.80;;;0.30;;
20826;SDS011;10574;52.508;13.236;2023-04-24T07:02:52;0.13;;;0.13;;
20826;SDS011;10574;52.508;13.236;2023-04-24T07:05:20;0.23;;;0.23;;
20826;SDS011;10574;52.508;13.236;2023-04-24T07:07:48;0.00;;;0.00;;
20826;SDS011;10574;52.508;13.236;2023-04-24T07:10:17;0.10;;;0.10;;
20826;SDS011;10574;52.508;13.236;2023-04-24T07:12:45;0.03;;;0.03;;
20826;SDS011;10574;52.508;13.236;2023-04-24T07:15:13;0.17;;;0.10;;
20826;SDS011;10574;52.508;13.236;2023-04-24T07:17:42;0.20;;;0.20;;
20826;SDS011;10574;52.508;13.236;2023-04-24T07:20:10;0.50;;;0.40;;
20826;SDS011;10574;52.508;13.236;2023-04-24T07:22:41;0.10;;;0.10;;
20826;SDS011;10574;52.508;13.236;2023-04-24T07:25:09;0.00;;;0.00;;
20826;SDS011;10574;52.508;13.236;2023-04-24T07:27:37;0.17;;;0.17;;
20826;SDS011;10574;52.508;13.236;2023-04-24T07:30:06;0.20;;;0.20;;
20826;SDS011;10574;52.508;13.236;2023-04-24T07:32:34;0.10;;;0.00;;
20826;SDS011;10574;52.508;13.236;2023-04-24T07:35:02;0.10;;;0.10;;
20826;SDS011;10574;52.508;13.236;2023-04-24T07:37:30;0.10;;;0.10;;
20826;SDS011;10574;52.508;13.236;2023-04-24T07:39:58;0.10;;;0.10;;
20826;SDS011;10574;52.508;13.236;2023-04-24T07:42:25;0.20;;;0.20;;
20826;SDS011;10574;52.508;13.236;2023-04-24T07:44:56;0.20;;;0.20;;
20826;SDS011;10574;52.508;13.236;2023-04-24T07:47:25;6.60;;;0.20;;
20826;SDS011;10574;52.508;13.236;2023-04-24T07:49:53;0.07;;;0.07;;
20826;SDS011;10574;52.508;13.236;2023-04-24T07:52:21;0.20;;;0.20;;
20826;SDS011;10574;52.508;13.236;2023-04-24T07:54:48;0.10;;;0.10;;
20826;SDS011;10574;52.508;13.236;2023-04-24T07:57:18;0.00;;;0.00;;
20826;SDS011;10574;52.508;13.236;2023-04-24T07:59:45;0.00;;;0.00;;
20826;SDS011;10574;52.508;13.236;2023-04-24T08:02:13;0.07;;;0.07;;
20826;SDS011;10574;52.508;13.236;2023-04-24T08:04:41;0.17;;;0.17;;
20826;SDS011;10574;52.508;13.236;2023-04-24T08:07:09;0.10;;;0.00;;
20826;SDS011;10574;52.508;13.236;2023-04-24T08:09:38;0.40;;;0.10;;
20826;SDS011;10574;52.508;13.236;2023-04-24T08:12:06;10.10;;;0.77;;
20826;SDS011;10574;52.508;13.236;2023-04-24T08:14:34;0.00;;;0.00;;
20826;SDS011;10574;52.508;13.236;2023-04-24T08:17:01;0.00;;;0.00;;
20826;SDS011;10574;52.508;13.236;2023-04-24T08:19:29;0.10;;;0.10;;
20826;SDS011;10574;52.508;13.236;2023-04-24T08:21:57;0.20;;;0.17;;
20826;SDS011;10574;52.508;13.236;2023-04-24T08:24:25;2.43;;;0.43;;
20826;SDS011;10574;52.508;13.236;2023-04-24T08:26:53;0.00;;;0.00;;
20826;SDS011;10574;52.508;13.236;2023-04-24T08:29:22;0.33;;;0.13;;
20826;SDS011;10574;52.508;13.236;2023-04-24T08:31:50;0.00;;;0.00;;
20826;SDS011;10574;52.508;13.236;2023-04-24T08:34:20;0.10;;;0.07;;
20826;SDS011;10574;52.508;13.236;2023-04-24T08:36:48;0.10;;;0.10;;
20826;SDS011;10574;52.508;13.236;2023-04-24T08:39:16;0.10;;;0.10;;
20826;SDS011;10574;52.508;13.236;2023-04-24T08:41:45;0.00;;;0.00;;
20826;SDS011;10574;52.508;13.236;2023-04-24T08:44:14;0.00;;;0.00;;
20826;SDS011;10574;52.508;13.236;2023-04-24T08:46:45;0.20;;;0.10;;
20826;SDS011;10574;52.508;13.236;2023-04-24T08:49:17;0.10;;;0.10;;
20826;SDS011;10574;52.508;13.236;2023-04-24T08:51:45;0.00;;;0.00;;
20826;SDS011;10574;52.508;13.236;2023-04-24T08:54:13;0.00;;;0.00;;
20826;SDS011;10574;52.508;13.236;2023-04-24T08:56:42;0.00;;;0.00;;
20826;SDS011;10574;52.508;13.236;2023-04-24T08:59:11;0.10;;;0.10;;
20826;SDS011;10574;52.508;13.236;2023-04-24T09:01:40;0.20;;;0.03;;
20826;SDS011;10574;52.508;13.236;2023-04-24T09:04:09;0.13;;;0.13;;
20826;SDS011;10574;52.508;13.236;2023-04-24T09:06:38;0.80;;;0.07;;
20826;SDS011;10574;52.508;13.236;2023-04-24T09:09:05;0.10;;;0.10;;
20826;SDS011;10574;52.508;13.236;2023-04-24T09:11:35;0.10;;;0.07;;
20826;SDS011;10574;52.508;13.236;2023-04-24T09:14:23;7.80;;;0.20;;
20826;SDS011;10574;52.508;13.236;2023-04-24T09:16:51;0.20;;;0.20;;
20826;SDS011;10574;52.508;13.236;2023-04-24T09:19:19;0.10;;;0.10;;
20826;SDS011;10574;52.508;13.236;2023-04-24T09:21:48;0.00;;;0.00;;
20826;SDS011;10574;52.508;13.236;2023-04-24T09:24:19;0.00;;;0.00;;
20826;SDS011;10574;52.508;13.236;2023-04-24T09:26:57;0.10;;;0.10;;
20826;SDS011;10574;52.508;13.236;2023-04-24T09:29:27;0.17;;;0.10;;
20826;SDS011;10574;52.508;13.236;2023-04-24T09:31:55;0.03;;;0.03;;
20826;SDS011;10574;52.508;13.236;2023-04-24T09:34:24;1.43;;;0.37;;
20826;SDS011;10574;52.508;13.236;2023-04-24T09:36:53;0.00;;;0.00;;
20826;SDS011;10574;52.508;13.236;2023-04-24T09:39:21;0.43;;;0.20;;
20826;SDS011;10574;52.508;13.236;2023-04-24T09:41:50;0.00;;;0.00;;
20826;SDS011;10574;52.508;13.236;2023-04-24T09:44:20;0.10;;;0.10;;
20826;SDS011;10574;52.508;13.236;2023-04-24T09:47:00;0.10;;;0.10;;
20826;SDS011;10574;52.508;13.236;2023-04-24T09:49:26;0.07;;;0.00;;
20826;SDS011;10574;52.508;13.236;2023-04-24T09:54:36;0.97;;;0.43;;
20826;SDS011;10574;52.508;13.236;2023-04-24T09:57:05;0.03;;;0.03;;
20826;SDS011;10574;52.508;13.236;2023-04-24T09:59:39;0.10;;;0.10;;
20826;SDS011;10574;52.508;13.236;2023-04-24T10:02:16;1.33;;;0.13;;
20826;SDS011;10574;52.508;13.236;2023-04-24T10:04:55;0.40;;;0.20;;
20826;SDS011;10574;52.508;13.236;2023-04-24T10:07:28;0.67;;;0.30;;
20826;SDS011;10574;52.508;13.236;2023-04-24T10:09:55;0.00;;;0.00;;
20826;SDS011;10574;52.508;13.236;2023-04-24T10:12:24;0.00;;;0.00;;
20826;SDS011;10574;52.508;13.236;2023-04-24T10:14:54;2.83;;;0.70;;
20826;SDS011;10574;52.508;13.236;2023-04-24T10:17:23;0.47;;;0.30;;
20826;SDS011;10574;52.508;13.236;2023-04-24T10:19:52;0.00;;;0.00;;
20826;SDS011;10574;52.508;13.236;2023-04-24T10:22:21;0.87;;;0.37;;
20826;SDS011;10574;52.508;13.236;2023-04-24T10:24:49;0.10;;;0.10;;
20826;SDS011;10574;52.508;13.236;2023-04-24T10:27:18;0.20;;;0.10;;
20826;SDS011;10574;52.508;13.236;2023-04-24T10:29:48;0.10;;;0.10;;
20826;SDS011;10574;52.508;13.236;2023-04-24T10:32:19;0.00;;;0.00;;
20826;SDS011;10574;52.508;13.236;2023-04-24T10:34:47;0.00;;;0.00;;
20826;SDS011;10574;52.508;13.236;2023-04-24T10:37:15;0.00;;;0.00;;
20826;SDS011;10574;52.508;13.236;2023-04-24T10:39:43;0.00;;;0.00;;
20826;SDS011;10574;52.508;13.236;2023-04-24T10:42:16;0.00;;;0.00;;
20826;SDS011;10574;52.508;13.236;2023-04-24T10:44:44;0.57;;;0.33;;
20826;SDS011;10574;52.508;13.236;2023-04-24T10:47:15;0.77;;;0.30;;
20826;SDS011;10574;52.508;13.236;2023-04-24T10:49:44;0.10;;;0.10;;
20826;SDS011;10574;52.508;13.236;2023-04-24T10:52:12;0.00;;;0.00;;
20826;SDS011;10574;52.508;13.236;2023-04-24T10:54:44;0.10;;;0.10;;
20826;SDS011;10574;52.508;13.236;2023-04-24T10:59:50;0.00;;;0.00;;
20826;SDS011;10574;52.508;13.236;2023-04-24T11:02:23;0.20;;;0.20;;
20826;SDS011;10574;52.508;13.236;2023-04-24T11:04:51;0.37;;;0.30;;
20826;SDS011;10574;52.508;13.236;2023-04-24T11:07:19;0.00;;;0.00;;
20826;SDS011;10574;52.508;13.236;2023-04-24T11:09:48;0.10;;;0.10;;
20826;SDS011;10574;52.508;13.236;2023-04-24T11:12:18;1.30;;;0.37;;
20826;SDS011;10574;52.508;13.236;2023-04-24T11:17:35;0.10;;;0.10;;
20826;SDS011;10574;52.508;13.236;2023-04-24T11:20:07;0.03;;;0.03;;
20826;SDS011;10574;52.508;13.236;2023-04-24T11:22:37;2.30;;;0.30;;
20826;SDS011;10574;52.508;13.236;2023-04-24T11:25:06;0.10;;;0.10;;
20826;SDS011;10574;52.508;13.236;2023-04-24T11:27:43;0.30;;;0.27;;
20826;SDS011;10574;52.508;13.236;2023-04-24T11:30:08;0.10;;;0.10;;
20826;SDS011;10574;52.508;13.236;2023-04-24T11:32:37;0.00;;;0.00;;
20826;SDS011;10574;52.508;13.236;2023-04-24T11:35:16;0.10;;;0.10;;
20826;SDS011;10574;52.508;13.236;2023-04-24T11:37:50;0.30;;;0.30;;
20826;SDS011;10574;52.508;13.236;2023-04-24T11:40:19;0.00;;;0.00;;
20826;SDS011;10574;52.508;13.236;2023-04-24T11:42:52;0.00;;;0.00;;
20826;SDS011;10574;52.508;13.236;2023-04-24T11:45:23;0.00;;;0.00;;
20826;SDS011;10574;52.508;13.236;2023-04-24T11:47:52;0.10;;;0.10;;
20826;SDS011;10574;52.508;13.236;2023-04-24T11:50:25;0.27;;;0.20;;
20826;SDS011;10574;52.508;13.236;2023-04-24T11:52:51;0.10;;;0.10;;
20826;SDS011;10574;52.508;13.236;2023-04-24T11:57:52;0.13;;;0.10;;
20826;SDS011;10574;52.508;13.236;2023-04-24T12:00:28;0.10;;;0.10;;
20826;SDS011;10574;52.508;13.236;2023-04-24T12:03:10;2.03;;;0.30;;
20826;SDS011;10574;52.508;13.236;2023-04-24T12:05:42;0.10;;;0.10;;
20826;SDS011;10574;52.508;13.236;2023-04-24T12:08:10;0.27;;;0.27;;
20826;SDS011;10574;52.508;13.236;2023-04-24T12:10:39;0.63;;;0.20;;
20826;SDS011;10574;52.508;13.236;2023-04-24T12:13:08;0.17;;;0.00;;
20826;SDS011;10574;52.508;13.236;2023-04-24T12:15:39;0.30;;;0.17;;
20826;SDS011;10574;52.508;13.236;2023-04-24T12:18:06;0.30;;;0.23;;
20826;SDS011;10574;52.508;13.236;2023-04-24T12:20:37;0.17;;;0.03;;
20826;SDS011;10574;52.508;13.236;2023-04-24T12:23:04;0.10;;;0.10;;
20826;SDS011;10574;52.508;13.236;2023-04-24T12:25:32;0.07;;;0.07;;
20826;SDS011;10574;52.508;13.236;2023-04-24T12:30:40;0.00;;;0.00;;
20826;SDS011;10574;52.508;13.236;2023-04-24T12:33:11;1.07;;;0.10;;
20826;SDS011;10574;52.508;13.236;2023-04-24T12:35:40;0.10;;;0.10;;
20826;SDS011;10574;52.508;13.236;2023-04-24T12:38:08;0.17;;;0.17;;
20826;SDS011;10574;52.508;13.236;2023-04-24T12:40:38;0.10;;;0.10;;
20826;SDS011;10574;52.508;13.236;2023-04-24T12:43:17;0.10;;;0.10;;
20826;SDS011;10574;52.508;13.236;2023-04-24T12:45:47;0.37;;;0.30;;
20826;SDS011;10574;52.508;13.236;2023-04-24T12:48:15;0.10;;;0.10;;
20826;SDS011;10574;52.508;13.236;2023-04-24T12:50:43;0.00;;;0.00;;
20826;SDS011;10574;52.508;13.236;2023-04-24T12:53:11;0.57;;;0.30;;
20826;SDS011;10574;52.508;13.236;2023-04-24T12:55:39;0.03;;;0.03;;
20826;SDS011;10574;52.508;13.236;2023-04-24T12:58:07;0.20;;;0.20;;
20826;SDS011;10574;52.508;13.236;2023-04-24T13:00:35;3.47;;;0.43;;
20826;SDS011;10574;52.508;13.236;2023-04-24T13:03:03;0.10;;;0.10;;
20826;SDS011;10574;52.508;13.236;2023-04-24T13:05:31;0.47;;;0.13;;
20826;SDS011;10574;52.508;13.236;2023-04-24T13:07:59;0.30;;;0.30;;
20826;SDS011;10574;52.508;13.236;2023-04-24T13:10:27;1.00;;;0.13;;
20826;SDS011;10574;52.508;13.236;2023-04-24T13:12:55;0.00;;;0.00;;
20826;SDS011;10574;52.508;13.236;2023-04-24T13:15:23;0.17;;;0.17;;
20826;SDS011;10574;52.508;13.236;2023-04-24T13:17:51;0.50;;;0.30;;
20826;SDS011;10574;52.508;13.236;2023-04-24T13:20:18;0.13;;;0.13;;
20826;SDS011;10574;52.508;13.236;2023-04-24T13:22:47;0.20;;;0.17;;
20826;SDS011;10574;52.508;13.236;2023-04-24T13:25:14;0.00;;;0.00;;
20826;SDS011;10574;52.508;13.236;2023-04-24T13:27:43;0.13;;;0.10;;
20826;SDS011;10574;52.508;13.236;2023-04-24T13:30:11;0.00;;;0.00;;
20826;SDS011;10574;52.508;13.236;2023-04-24T13:32:39;0.20;;;0.20;;
20826;SDS011;10574;52.508;13.236;2023-04-24T13:35:07;0.00;;;0.00;;
20826;SDS011;10574;52.508;13.236;2023-04-24T13:37:37;2.20;;;0.63;;
20826;SDS011;10574;52.508;13.236;2023-04-24T13:40:05;0.10;;;0.10;;
20826;SDS011;10574;52.508;13.236;2023-04-24T13:42:34;0.00;;;0.00;;
20826;SDS011;10574;52.508;13.236;2023-04-24T13:45:02;0.20;;;0.20;;
20826;SDS011;10574;52.508;13.236;2023-04-24T13:47:30;0.53;;;0.20;;
20826;SDS011;10574;52.508;13.236;2023-04-24T13:49:58;0.00;;;0.00;;
20826;SDS011;10574;52.508;13.236;2023-04-24T13:52:25;6.90;;;0.40;;
20826;SDS011;10574;52.508;13.236;2023-04-24T13:54:53;0.10;;;0.10;;
20826;SDS011;10574;52.508;13.236;2023-04-24T13:57:21;0.23;;;0.10;;
20826;SDS011;10574;52.508;13.236;2023-04-24T13:59:49;0.23;;;0.23;;
20826;SDS011;10574;52.508;13.236;2023-04-24T14:02:17;0.10;;;0.10;;
20826;SDS011;10574;52.508;13.236;2023-04-24T14:04:45;0.10;;;0.10;;
20826;SDS011;10574;52.508;13.236;2023-04-24T14:07:14;0.23;;;0.10;;
20826;SDS011;10574;52.508;13.236;2023-04-24T14:09:41;0.03;;;0.03;;
20826;SDS011;10574;52.508;13.236;2023-04-24T14:12:09;0.00;;;0.00;;
20826;SDS011;10574;52.508;13.236;2023-04-24T14:14:37;0.90;;;0.60;;
20826;SDS011;10574;52.508;13.236;2023-04-24T14:17:05;0.00;;;0.00;;
20826;SDS011;10574;52.508;13.236;2023-04-24T14:19:33;0.00;;;0.00;;
20826;SDS011;10574;52.508;13.236;2023-04-24T14:22:00;0.83;;;0.20;;
20826;SDS011;10574;52.508;13.236;2023-04-24T14:24:28;0.10;;;0.10;;
20826;SDS011;10574;52.508;13.236;2023-04-24T14:26:57;0.10;;;0.10;;
20826;SDS011;10574;52.508;13.236;2023-04-24T14:29:26;0.67;;;0.40;;
20826;SDS011;10574;52.508;13.236;2023-04-24T14:31:54;0.10;;;0.10;;
20826;SDS011;10574;52.508;13.236;2023-04-24T14:34:21;1.93;;;0.43;;
20826;SDS011;10574;52.508;13.236;2023-04-24T14:36:49;0.10;;;0.10;;
20826;SDS011;10574;52.508;13.236;2023-04-24T14:39:17;0.50;;;0.40;;
20826;SDS011;10574;52.508;13.236;2023-04-24T14:41:45;0.67;;;0.10;;
20826;SDS011;10574;52.508;13.236;2023-04-24T14:44:13;2.53;;;0.40;;
20826;SDS011;10574;52.508;13.236;2023-04-24T14:46:41;0.00;;;0.00;;
20826;SDS011;10574;52.508;13.236;2023-04-24T14:49:09;0.10;;;0.10;;
20826;SDS011;10574;52.508;13.236;2023-04-24T14:51:38;0.30;;;0.20;;
20826;SDS011;10574;52.508;13.236;2023-04-24T14:54:07;0.10;;;0.10;;